sensor_id;sensor_type;location;lat;lon;timestamp;P1;durP1;ratioP1;P2;durP2;ratioP2
49193;SDS011;35029;50.804;12.866;2022-12-15T00:01:21;52.90;;;29.13;;
49193;SDS011;35029;50.804;12.866;2022-12-15T00:04:05;50.60;;;28.60;;
49193;SDS011;35029;50.804;12.866;2022-12-15T00:06:50;50.10;;;28.00;;
49193;SDS011;35029;50.804;12.866;2022-12-15T00:09:37;42.93;;;26.33;;
49193;SDS011;35029;50.804;12.866;2022-12-15T00:12:21;52.43;;;28.53;;
49193;SDS011;35029;50.804;12.866;2022-12-15T00:15:08;45.73;;;25.93;;
49193;SDS011;35029;50.804;12.866;2022-12-15T00:18:04;43.93;;;24.87;;
49193;SDS011;35029;50.804;12.866;2022-12-15T00:20:50;46.90;;;26.67;;
49193;SDS011;35029;50.804;12.866;2022-12-15T00:23:35;45.60;;;26.17;;
49193;SDS011;35029;50.804;12.866;2022-12-15T00:26:20;46.27;;;24.33;;
49193;SDS011;35029;50.804;12.866;2022-12-15T00:29:04;42.53;;;24.83;;
49193;SDS011;35029;50.804;12.866;2022-12-15T00:31:48;40.73;;;23.53;;
49193;SDS011;35029;50.804;12.866;2022-12-15T00:34:32;42.43;;;24.17;;
49193;SDS011;35029;50.804;12.866;2022-12-15T00:37:17;44.23;;;25.33;;
49193;SDS011;35029;50.804;12.866;2022-12-15T00:40:02;44.30;;;22.47;;
49193;SDS011;35029;50.804;12.866;2022-12-15T00:42:29;39.83;;;23.63;;
49193;SDS011;35029;50.804;12.866;2022-12-15T00:44:55;43.97;;;24.40;;
49193;SDS011;35029;50.804;12.866;2022-12-15T00:47:23;37.90;;;22.37;;
49193;SDS011;35029;50.804;12.866;2022-12-15T00:49:52;43.45;;;24.13;;
49193;SDS011;35029;50.804;12.866;2022-12-15T00:52:36;41.30;;;23.43;;
49193;SDS011;35029;50.804;12.866;2022-12-15T00:55:21;43.47;;;24.03;;
49193;SDS011;35029;50.804;12.866;2022-12-15T00:58:07;40.87;;;22.87;;
49193;SDS011;35029;50.804;12.866;2022-12-15T01:00:51;42.17;;;24.23;;
49193;SDS011;35029;50.804;12.866;2022-12-15T01:03:35;43.53;;;22.63;;
49193;SDS011;35029;50.804;12.866;2022-12-15T01:06:19;42.87;;;22.80;;
49193;SDS011;35029;50.804;12.866;2022-12-15T01:09:06;43.90;;;23.17;;
49193;SDS011;35029;50.804;12.866;2022-12-15T01:11:52;37.40;;;22.17;;
49193;SDS011;35029;50.804;12.866;2022-12-15T01:14:36;45.97;;;22.37;;
49193;SDS011;35029;50.804;12.866;2022-12-15T01:17:21;38.97;;;22.43;;
49193;SDS011;35029;50.804;12.866;2022-12-15T01:20:05;42.47;;;24.37;;
49193;SDS011;35029;50.804;12.866;2022-12-15T01:22:51;45.57;;;24.23;;
49193;SDS011;35029;50.804;12.866;2022-12-15T01:25:21;38.63;;;22.10;;
49193;SDS011;35029;50.804;12.866;2022-12-15T01:27:48;41.80;;;21.97;;
49193;SDS011;35029;50.804;12.866;2022-12-15T01:30:16;40.60;;;22.07;;
49193;SDS011;35029;50.804;12.866;2022-12-15T01:32:43;39.10;;;22.50;;
49193;SDS011;35029;50.804;12.866;2022-12-15T01:35:09;38.97;;;22.23;;
49193;SDS011;35029;50.804;12.866;2022-12-15T01:37:36;40.43;;;23.67;;
49193;SDS011;35029;50.804;12.866;2022-12-15T01:40:03;37.30;;;22.03;;
49193;SDS011;35029;50.804;12.866;2022-12-15T01:42:50;37.57;;;20.93;;
49193;SDS011;35029;50.804;12.866;2022-12-15T01:47:55;39.03;;;21.77;;
49193;SDS011;35029;50.804;12.866;2022-12-15T01:50:24;37.03;;;21.37;;
49193;SDS011;35029;50.804;12.866;2022-12-15T01:52:50;38.47;;;21.73;;
49193;SDS011;35029;50.804;12.866;2022-12-15T01:55:19;36.77;;;22.53;;
49193;SDS011;35029;50.804;12.866;2022-12-15T01:57:50;40.73;;;21.80;;
49193;SDS011;35029;50.804;12.866;2022-12-15T02:00:20;31.53;;;19.80;;
49193;SDS011;35029;50.804;12.866;2022-12-15T02:02:46;35.57;;;21.50;;
49193;SDS011;35029;50.804;12.866;2022-12-15T02:05:12;39.87;;;20.77;;
49193;SDS011;35029;50.804;12.866;2022-12-15T02:07:38;37.57;;;20.63;;
49193;SDS011;35029;50.804;12.866;2022-12-15T02:10:03;35.83;;;19.87;;
49193;SDS011;35029;50.804;12.866;2022-12-15T02:15:26;35.73;;;22.10;;
49193;SDS011;35029;50.804;12.866;2022-12-15T02:27:11;38.47;;;20.80;;
49193;SDS011;35029;50.804;12.866;2022-12-15T02:33:39;32.70;;;19.83;;
49193;SDS011;35029;50.804;12.866;2022-12-15T02:35:44;32.83;;;19.37;;
49193;SDS011;35029;50.804;12.866;2022-12-15T02:38:34;38.00;;;20.50;;
49193;SDS011;35029;50.804;12.866;2022-12-15T02:41:03;39.63;;;21.23;;
49193;SDS011;35029;50.804;12.866;2022-12-15T02:43:31;32.67;;;18.60;;
49193;SDS011;35029;50.804;12.866;2022-12-15T02:46:13;32.97;;;18.63;;
49193;SDS011;35029;50.804;12.866;2022-12-15T02:51:33;34.90;;;19.20;;
49193;SDS011;35029;50.804;12.866;2022-12-15T02:59:59;31.83;;;17.93;;
49193;SDS011;35029;50.804;12.866;2022-12-15T03:02:08;37.27;;;19.17;;
49193;SDS011;35029;50.804;12.866;2022-12-15T03:04:38;33.87;;;19.83;;
49193;SDS011;35029;50.804;12.866;2022-12-15T03:07:07;37.27;;;20.57;;
49193;SDS011;35029;50.804;12.866;2022-12-15T03:09:34;36.33;;;20.30;;
49193;SDS011;35029;50.804;12.866;2022-12-15T03:12:00;33.33;;;18.77;;
49193;SDS011;35029;50.804;12.866;2022-12-15T03:14:26;35.07;;;19.27;;
49193;SDS011;35029;50.804;12.866;2022-12-15T03:16:52;33.13;;;20.00;;
49193;SDS011;35029;50.804;12.866;2022-12-15T03:19:18;36.57;;;18.77;;
49193;SDS011;35029;50.804;12.866;2022-12-15T03:21:44;30.83;;;19.20;;
49193;SDS011;35029;50.804;12.866;2022-12-15T03:24:09;33.17;;;18.93;;
49193;SDS011;35029;50.804;12.866;2022-12-15T03:26:35;30.93;;;17.93;;
49193;SDS011;35029;50.804;12.866;2022-12-15T03:29:01;34.70;;;19.60;;
49193;SDS011;35029;50.804;12.866;2022-12-15T03:31:27;30.23;;;18.43;;
49193;SDS011;35029;50.804;12.866;2022-12-15T03:33:54;32.77;;;18.90;;
49193;SDS011;35029;50.804;12.866;2022-12-15T03:36:20;30.33;;;16.87;;
49193;SDS011;35029;50.804;12.866;2022-12-15T03:38:47;32.50;;;18.07;;
49193;SDS011;35029;50.804;12.866;2022-12-15T03:41:13;30.77;;;18.93;;
49193;SDS011;35029;50.804;12.866;2022-12-15T03:43:42;33.23;;;19.70;;
49193;SDS011;35029;50.804;12.866;2022-12-15T03:46:10;30.33;;;17.03;;
49193;SDS011;35029;50.804;12.866;2022-12-15T03:48:35;33.83;;;18.50;;
49193;SDS011;35029;50.804;12.866;2022-12-15T03:51:02;33.07;;;18.53;;
49193;SDS011;35029;50.804;12.866;2022-12-15T03:53:29;33.53;;;19.03;;
49193;SDS011;35029;50.804;12.866;2022-12-15T03:55:55;33.40;;;19.57;;
49193;SDS011;35029;50.804;12.866;2022-12-15T03:58:21;29.83;;;16.80;;
49193;SDS011;35029;50.804;12.866;2022-12-15T04:00:46;28.33;;;17.50;;
49193;SDS011;35029;50.804;12.866;2022-12-15T04:03:12;26.83;;;16.87;;
49193;SDS011;35029;50.804;12.866;2022-12-15T04:05:38;27.93;;;17.20;;
49193;SDS011;35029;50.804;12.866;2022-12-15T04:08:05;29.97;;;17.77;;
49193;SDS011;35029;50.804;12.866;2022-12-15T04:10:31;32.43;;;18.23;;
49193;SDS011;35029;50.804;12.866;2022-12-15T04:12:59;24.03;;;16.33;;
49193;SDS011;35029;50.804;12.866;2022-12-15T04:15:30;29.43;;;16.73;;
49193;SDS011;35029;50.804;12.866;2022-12-15T04:17:56;28.93;;;16.83;;
49193;SDS011;35029;50.804;12.866;2022-12-15T04:20:22;30.37;;;17.37;;
49193;SDS011;35029;50.804;12.866;2022-12-15T04:22:49;28.40;;;16.13;;
49193;SDS011;35029;50.804;12.866;2022-12-15T04:28:05;27.90;;;16.43;;
49193;SDS011;35029;50.804;12.866;2022-12-15T04:30:56;26.33;;;14.33;;
49193;SDS011;35029;50.804;12.866;2022-12-15T04:33:45;25.30;;;15.23;;
49193;SDS011;35029;50.804;12.866;2022-12-15T04:36:36;31.13;;;15.93;;
49193;SDS011;35029;50.804;12.866;2022-12-15T04:39:22;28.43;;;16.17;;
49193;SDS011;35029;50.804;12.866;2022-12-15T04:42:07;27.13;;;16.63;;
49193;SDS011;35029;50.804;12.866;2022-12-15T04:44:52;27.03;;;15.33;;
49193;SDS011;35029;50.804;12.866;2022-12-15T04:47:41;29.13;;;15.20;;
49193;SDS011;35029;50.804;12.866;2022-12-15T04:50:26;26.70;;;15.37;;
49193;SDS011;35029;50.804;12.866;2022-12-15T04:53:11;26.93;;;15.17;;
49193;SDS011;35029;50.804;12.866;2022-12-15T04:55:57;25.83;;;14.97;;
49193;SDS011;35029;50.804;12.866;2022-12-15T04:58:43;23.50;;;14.00;;
49193;SDS011;35029;50.804;12.866;2022-12-15T05:01:28;23.20;;;13.43;;
49193;SDS011;35029;50.804;12.866;2022-12-15T05:04:15;21.83;;;14.13;;
49193;SDS011;35029;50.804;12.866;2022-12-15T05:07:00;25.17;;;15.13;;
49193;SDS011;35029;50.804;12.866;2022-12-15T05:09:46;23.77;;;14.37;;
49193;SDS011;35029;50.804;12.866;2022-12-15T05:12:32;24.73;;;14.23;;
49193;SDS011;35029;50.804;12.866;2022-12-15T05:15:17;21.83;;;13.03;;
49193;SDS011;35029;50.804;12.866;2022-12-15T05:18:01;23.93;;;14.63;;
49193;SDS011;35029;50.804;12.866;2022-12-15T05:20:45;25.73;;;14.17;;
49193;SDS011;35029;50.804;12.866;2022-12-15T05:23:30;23.77;;;12.97;;
49193;SDS011;35029;50.804;12.866;2022-12-15T05:26:15;22.70;;;14.60;;
49193;SDS011;35029;50.804;12.866;2022-12-15T05:29:05;21.67;;;13.70;;
49193;SDS011;35029;50.804;12.866;2022-12-15T05:31:49;22.77;;;13.87;;
49193;SDS011;35029;50.804;12.866;2022-12-15T05:34:32;22.20;;;12.47;;
49193;SDS011;35029;50.804;12.866;2022-12-15T05:37:00;21.93;;;12.90;;
49193;SDS011;35029;50.804;12.866;2022-12-15T05:39:26;21.47;;;12.07;;
49193;SDS011;35029;50.804;12.866;2022-12-15T05:41:53;24.43;;;13.83;;
49193;SDS011;35029;50.804;12.866;2022-12-15T05:44:20;21.43;;;12.03;;
49193;SDS011;35029;50.804;12.866;2022-12-15T05:46:46;19.47;;;12.33;;
49193;SDS011;35029;50.804;12.866;2022-12-15T05:49:13;18.93;;;12.20;;
49193;SDS011;35029;50.804;12.866;2022-12-15T05:51:42;20.43;;;12.50;;
49193;SDS011;35029;50.804;12.866;2022-12-15T05:54:10;22.17;;;13.00;;
49193;SDS011;35029;50.804;12.866;2022-12-15T05:56:37;20.70;;;13.33;;
49193;SDS011;35029;50.804;12.866;2022-12-15T05:59:03;21.53;;;12.13;;
49193;SDS011;35029;50.804;12.866;2022-12-15T06:01:30;23.00;;;13.33;;
49193;SDS011;35029;50.804;12.866;2022-12-15T06:03:57;23.30;;;13.93;;
49193;SDS011;35029;50.804;12.866;2022-12-15T06:06:23;22.13;;;13.40;;
49193;SDS011;35029;50.804;12.866;2022-12-15T06:08:50;22.50;;;12.67;;
49193;SDS011;35029;50.804;12.866;2022-12-15T06:11:18;23.63;;;14.50;;
49193;SDS011;35029;50.804;12.866;2022-12-15T06:13:45;24.27;;;13.67;;
49193;SDS011;35029;50.804;12.866;2022-12-15T06:16:20;25.70;;;14.70;;
49193;SDS011;35029;50.804;12.866;2022-12-15T06:18:58;25.17;;;13.97;;
49193;SDS011;35029;50.804;12.866;2022-12-15T06:21:29;22.67;;;14.03;;
49193;SDS011;35029;50.804;12.866;2022-12-15T06:23:59;21.37;;;12.40;;
49193;SDS011;35029;50.804;12.866;2022-12-15T06:26:26;21.77;;;12.73;;
49193;SDS011;35029;50.804;12.866;2022-12-15T06:28:53;24.63;;;12.60;;
49193;SDS011;35029;50.804;12.866;2022-12-15T06:31:21;22.90;;;12.27;;
49193;SDS011;35029;50.804;12.866;2022-12-15T06:33:48;21.50;;;13.27;;
49193;SDS011;35029;50.804;12.866;2022-12-15T06:36:16;23.57;;;12.67;;
49193;SDS011;35029;50.804;12.866;2022-12-15T06:38:42;20.47;;;12.10;;
49193;SDS011;35029;50.804;12.866;2022-12-15T06:41:10;25.37;;;12.30;;
49193;SDS011;35029;50.804;12.866;2022-12-15T06:43:38;22.17;;;12.63;;
49193;SDS011;35029;50.804;12.866;2022-12-15T06:46:04;22.40;;;13.47;;
49193;SDS011;35029;50.804;12.866;2022-12-15T06:48:30;23.97;;;13.80;;
49193;SDS011;35029;50.804;12.866;2022-12-15T06:51:05;21.00;;;13.10;;
49193;SDS011;35029;50.804;12.866;2022-12-15T06:53:35;22.13;;;13.00;;
49193;SDS011;35029;50.804;12.866;2022-12-15T06:56:03;22.83;;;12.20;;
49193;SDS011;35029;50.804;12.866;2022-12-15T06:58:32;21.27;;;11.90;;
49193;SDS011;35029;50.804;12.866;2022-12-15T07:01:05;21.33;;;11.47;;
49193;SDS011;35029;50.804;12.866;2022-12-15T07:03:32;22.03;;;12.63;;
49193;SDS011;35029;50.804;12.866;2022-12-15T07:06:02;20.87;;;11.63;;
49193;SDS011;35029;50.804;12.866;2022-12-15T07:08:32;22.27;;;12.90;;
49193;SDS011;35029;50.804;12.866;2022-12-15T07:11:04;20.70;;;13.23;;
49193;SDS011;35029;50.804;12.866;2022-12-15T07:13:31;20.25;;;11.38;;
49193;SDS011;35029;50.804;12.866;2022-12-15T07:15:58;21.60;;;12.80;;
49193;SDS011;35029;50.804;12.866;2022-12-15T07:18:25;23.73;;;13.50;;
49193;SDS011;35029;50.804;12.866;2022-12-15T07:20:52;22.27;;;14.00;;
49193;SDS011;35029;50.804;12.866;2022-12-15T07:23:17;23.53;;;13.03;;
49193;SDS011;35029;50.804;12.866;2022-12-15T07:25:43;25.90;;;13.47;;
49193;SDS011;35029;50.804;12.866;2022-12-15T07:28:08;27.47;;;13.70;;
49193;SDS011;35029;50.804;12.866;2022-12-15T07:30:34;22.77;;;12.37;;
49193;SDS011;35029;50.804;12.866;2022-12-15T07:33:00;21.67;;;12.07;;
49193;SDS011;35029;50.804;12.866;2022-12-15T07:35:29;24.37;;;12.50;;
49193;SDS011;35029;50.804;12.866;2022-12-15T07:37:55;19.50;;;12.30;;
49193;SDS011;35029;50.804;12.866;2022-12-15T07:40:22;20.90;;;11.90;;
49193;SDS011;35029;50.804;12.866;2022-12-15T07:45:28;19.30;;;11.30;;
49193;SDS011;35029;50.804;12.866;2022-12-15T07:47:53;19.47;;;11.97;;
49193;SDS011;35029;50.804;12.866;2022-12-15T07:50:19;22.03;;;12.13;;
49193;SDS011;35029;50.804;12.866;2022-12-15T07:52:46;25.60;;;11.83;;
49193;SDS011;35029;50.804;12.866;2022-12-15T07:55:11;23.97;;;13.87;;
49193;SDS011;35029;50.804;12.866;2022-12-15T07:57:37;24.57;;;13.30;;
49193;SDS011;35029;50.804;12.866;2022-12-15T08:00:03;25.53;;;12.70;;
49193;SDS011;35029;50.804;12.866;2022-12-15T08:02:36;21.37;;;12.27;;
49193;SDS011;35029;50.804;12.866;2022-12-15T08:05:07;24.00;;;13.20;;
49193;SDS011;35029;50.804;12.866;2022-12-15T08:07:34;22.43;;;12.70;;
49193;SDS011;35029;50.804;12.866;2022-12-15T08:10:00;21.63;;;12.20;;
49193;SDS011;35029;50.804;12.866;2022-12-15T08:12:26;25.07;;;13.93;;
49193;SDS011;35029;50.804;12.866;2022-12-15T08:14:52;28.80;;;14.43;;
49193;SDS011;35029;50.804;12.866;2022-12-15T08:17:19;26.40;;;14.37;;
49193;SDS011;35029;50.804;12.866;2022-12-15T08:19:45;26.33;;;14.13;;
49193;SDS011;35029;50.804;12.866;2022-12-15T08:22:11;26.53;;;14.37;;
49193;SDS011;35029;50.804;12.866;2022-12-15T08:24:36;28.43;;;15.50;;
49193;SDS011;35029;50.804;12.866;2022-12-15T08:27:04;31.70;;;16.90;;
49193;SDS011;35029;50.804;12.866;2022-12-15T08:29:29;29.33;;;16.13;;
49193;SDS011;35029;50.804;12.866;2022-12-15T08:31:55;30.67;;;18.27;;
49193;SDS011;35029;50.804;12.866;2022-12-15T08:34:20;33.50;;;18.87;;
49193;SDS011;35029;50.804;12.866;2022-12-15T08:36:46;31.23;;;17.60;;
49193;SDS011;35029;50.804;12.866;2022-12-15T08:39:12;35.73;;;18.57;;
49193;SDS011;35029;50.804;12.866;2022-12-15T08:41:38;35.27;;;20.30;;
49193;SDS011;35029;50.804;12.866;2022-12-15T08:44:05;34.30;;;18.47;;
49193;SDS011;35029;50.804;12.866;2022-12-15T08:46:31;30.80;;;19.17;;
49193;SDS011;35029;50.804;12.866;2022-12-15T08:48:59;28.83;;;16.93;;
49193;SDS011;35029;50.804;12.866;2022-12-15T08:51:26;31.83;;;17.27;;
49193;SDS011;35029;50.804;12.866;2022-12-15T08:53:56;25.57;;;15.27;;
49193;SDS011;35029;50.804;12.866;2022-12-15T08:56:23;25.60;;;15.00;;
49193;SDS011;35029;50.804;12.866;2022-12-15T08:58:53;26.80;;;14.87;;
49193;SDS011;35029;50.804;12.866;2022-12-15T09:01:21;23.95;;;14.25;;
49193;SDS011;35029;50.804;12.866;2022-12-15T09:03:48;23.10;;;13.80;;
49193;SDS011;35029;50.804;12.866;2022-12-15T09:06:24;24.67;;;14.47;;
49193;SDS011;35029;50.804;12.866;2022-12-15T09:08:55;19.40;;;11.50;;
49193;SDS011;35029;50.804;12.866;2022-12-15T09:11:25;20.30;;;12.63;;
49193;SDS011;35029;50.804;12.866;2022-12-15T09:13:52;20.83;;;13.83;;
49193;SDS011;35029;50.804;12.866;2022-12-15T09:16:19;25.10;;;15.03;;
49193;SDS011;35029;50.804;12.866;2022-12-15T09:18:48;28.07;;;17.17;;
49193;SDS011;35029;50.804;12.866;2022-12-15T09:21:16;28.17;;;16.93;;
49193;SDS011;35029;50.804;12.866;2022-12-15T09:23:46;27.73;;;15.23;;
49193;SDS011;35029;50.804;12.866;2022-12-15T09:26:16;30.80;;;16.53;;
49193;SDS011;35029;50.804;12.866;2022-12-15T09:28:43;27.40;;;14.60;;
49193;SDS011;35029;50.804;12.866;2022-12-15T09:31:10;28.73;;;15.67;;
49193;SDS011;35029;50.804;12.866;2022-12-15T09:33:38;25.73;;;15.00;;
49193;SDS011;35029;50.804;12.866;2022-12-15T09:36:04;26.67;;;15.70;;
49193;SDS011;35029;50.804;12.866;2022-12-15T09:38:33;28.10;;;16.90;;
49193;SDS011;35029;50.804;12.866;2022-12-15T09:41:07;29.80;;;17.13;;
49193;SDS011;35029;50.804;12.866;2022-12-15T09:43:34;26.67;;;16.17;;
49193;SDS011;35029;50.804;12.866;2022-12-15T09:46:10;31.23;;;16.80;;
49193;SDS011;35029;50.804;12.866;2022-12-15T09:48:48;35.77;;;17.37;;
49193;SDS011;35029;50.804;12.866;2022-12-15T09:51:17;29.10;;;17.33;;
49193;SDS011;35029;50.804;12.866;2022-12-15T09:53:43;29.30;;;16.93;;
49193;SDS011;35029;50.804;12.866;2022-12-15T09:56:12;21.27;;;13.83;;
49193;SDS011;35029;50.804;12.866;2022-12-15T10:01:46;22.90;;;13.57;;
49193;SDS011;35029;50.804;12.866;2022-12-15T10:04:38;18.50;;;11.70;;
49193;SDS011;35029;50.804;12.866;2022-12-15T10:09:48;20.13;;;12.60;;
49193;SDS011;35029;50.804;12.866;2022-12-15T10:12:25;22.13;;;13.00;;
49193;SDS011;35029;50.804;12.866;2022-12-15T10:17:58;22.17;;;13.27;;
49193;SDS011;35029;50.804;12.866;2022-12-15T10:20:47;24.40;;;13.90;;
49193;SDS011;35029;50.804;12.866;2022-12-15T10:23:17;23.67;;;14.27;;
49193;SDS011;35029;50.804;12.866;2022-12-15T10:25:48;23.70;;;13.43;;
49193;SDS011;35029;50.804;12.866;2022-12-15T10:31:01;20.52;;;12.73;;
49193;SDS011;35029;50.804;12.866;2022-12-15T10:33:52;20.63;;;11.50;;
49193;SDS011;35029;50.804;12.866;2022-12-15T10:36:21;17.47;;;11.47;;
49193;SDS011;35029;50.804;12.866;2022-12-15T10:38:48;18.30;;;11.30;;
49193;SDS011;35029;50.804;12.866;2022-12-15T10:41:14;21.13;;;12.50;;
49193;SDS011;35029;50.804;12.866;2022-12-15T10:43:43;16.77;;;11.63;;
49193;SDS011;35029;50.804;12.866;2022-12-15T10:46:22;16.17;;;10.57;;
49193;SDS011;35029;50.804;12.866;2022-12-15T10:48:50;16.47;;;10.20;;
49193;SDS011;35029;50.804;12.866;2022-12-15T10:56:45;15.00;;;9.23;;
49193;SDS011;35029;50.804;12.866;2022-12-15T11:01:47;15.53;;;10.10;;
49193;SDS011;35029;50.804;12.866;2022-12-15T11:07:18;15.50;;;9.33;;
49193;SDS011;35029;50.804;12.866;2022-12-15T11:09:44;15.67;;;10.43;;
49193;SDS011;35029;50.804;12.866;2022-12-15T11:12:20;14.93;;;9.70;;
49193;SDS011;35029;50.804;12.866;2022-12-15T11:15:50;14.23;;;9.37;;
49193;SDS011;35029;50.804;12.866;2022-12-15T11:18:17;15.80;;;9.50;;
49193;SDS011;35029;50.804;12.866;2022-12-15T11:21:16;14.40;;;9.77;;
49193;SDS011;35029;50.804;12.866;2022-12-15T11:23:48;17.43;;;10.33;;
49193;SDS011;35029;50.804;12.866;2022-12-15T11:26:30;15.73;;;10.00;;
49193;SDS011;35029;50.804;12.866;2022-12-15T11:29:53;20.20;;;10.07;;
49193;SDS011;35029;50.804;12.866;2022-12-15T11:32:13;15.73;;;9.27;;
49193;SDS011;35029;50.804;12.866;2022-12-15T11:34:43;16.63;;;10.37;;
49193;SDS011;35029;50.804;12.866;2022-12-15T11:40:02;13.90;;;8.77;;
49193;SDS011;35029;50.804;12.866;2022-12-15T11:48:34;15.33;;;9.03;;
49193;SDS011;35029;50.804;12.866;2022-12-15T11:51:31;13.53;;;9.23;;
49193;SDS011;35029;50.804;12.866;2022-12-15T12:00:28;17.63;;;9.67;;
49193;SDS011;35029;50.804;12.866;2022-12-15T12:05:58;14.53;;;9.13;;
49193;SDS011;35029;50.804;12.866;2022-12-15T12:11:28;14.88;;;9.98;;
49193;SDS011;35029;50.804;12.866;2022-12-15T12:17:03;16.10;;;10.43;;
49193;SDS011;35029;50.804;12.866;2022-12-15T12:19:34;16.57;;;9.53;;
49193;SDS011;35029;50.804;12.866;2022-12-15T12:22:06;15.30;;;10.27;;
49193;SDS011;35029;50.804;12.866;2022-12-15T12:24:54;16.83;;;9.87;;
49193;SDS011;35029;50.804;12.866;2022-12-15T12:30:23;14.95;;;9.77;;
49193;SDS011;35029;50.804;12.866;2022-12-15T12:38:22;14.40;;;9.47;;
49193;SDS011;35029;50.804;12.866;2022-12-15T12:43:34;15.60;;;9.17;;
49193;SDS011;35029;50.804;12.866;2022-12-15T12:48:40;13.20;;;9.60;;
49193;SDS011;35029;50.804;12.866;2022-12-15T12:51:26;15.27;;;9.97;;
49193;SDS011;35029;50.804;12.866;2022-12-15T12:54:00;16.17;;;10.33;;
49193;SDS011;35029;50.804;12.866;2022-12-15T12:59:03;14.07;;;8.63;;
49193;SDS011;35029;50.804;12.866;2022-12-15T13:01:50;13.67;;;8.90;;
49193;SDS011;35029;50.804;12.866;2022-12-15T13:06:57;14.37;;;9.27;;
49193;SDS011;35029;50.804;12.866;2022-12-15T13:09:40;15.13;;;8.80;;
49193;SDS011;35029;50.804;12.866;2022-12-15T13:12:31;14.30;;;9.03;;
49193;SDS011;35029;50.804;12.866;2022-12-15T13:15:13;14.00;;;8.43;;
49193;SDS011;35029;50.804;12.866;2022-12-15T13:20:34;11.97;;;8.40;;
49193;SDS011;35029;50.804;12.866;2022-12-15T13:28:38;10.47;;;6.93;;
49193;SDS011;35029;50.804;12.866;2022-12-15T13:39:50;11.43;;;6.93;;
49193;SDS011;35029;50.804;12.866;2022-12-15T13:46:43;12.53;;;7.80;;
49193;SDS011;35029;50.804;12.866;2022-12-15T13:51:51;10.73;;;6.53;;
49193;SDS011;35029;50.804;12.866;2022-12-15T13:54:30;9.90;;;6.80;;
49193;SDS011;35029;50.804;12.866;2022-12-15T13:57:01;10.53;;;6.93;;
49193;SDS011;35029;50.804;12.866;2022-12-15T14:05:05;13.35;;;7.40;;
49193;SDS011;35029;50.804;12.866;2022-12-15T14:07:43;11.83;;;8.00;;
49193;SDS011;35029;50.804;12.866;2022-12-15T14:10:15;11.90;;;7.37;;
49193;SDS011;35029;50.804;12.866;2022-12-15T14:12:47;9.73;;;7.20;;
49193;SDS011;35029;50.804;12.866;2022-12-15T14:15:14;12.60;;;7.80;;
49193;SDS011;35029;50.804;12.866;2022-12-15T14:17:43;15.47;;;8.57;;
49193;SDS011;35029;50.804;12.866;2022-12-15T14:20:22;12.87;;;8.00;;
49193;SDS011;35029;50.804;12.866;2022-12-15T14:22:50;11.30;;;8.10;;
49193;SDS011;35029;50.804;12.866;2022-12-15T14:25:20;12.97;;;7.77;;
49193;SDS011;35029;50.804;12.866;2022-12-15T14:27:48;11.30;;;7.20;;
49193;SDS011;35029;50.804;12.866;2022-12-15T14:30:21;11.53;;;7.53;;
49193;SDS011;35029;50.804;12.866;2022-12-15T14:33:02;11.00;;;7.73;;
49193;SDS011;35029;50.804;12.866;2022-12-15T14:35:44;16.20;;;8.37;;
49193;SDS011;35029;50.804;12.866;2022-12-15T14:38:20;12.47;;;7.90;;
49193;SDS011;35029;50.804;12.866;2022-12-15T14:40:51;14.70;;;8.53;;
49193;SDS011;35029;50.804;12.866;2022-12-15T14:43:27;12.93;;;8.23;;
49193;SDS011;35029;50.804;12.866;2022-12-15T14:46:07;13.13;;;7.80;;
49193;SDS011;35029;50.804;12.866;2022-12-15T14:48:42;12.83;;;8.77;;
49193;SDS011;35029;50.804;12.866;2022-12-15T14:51:14;16.53;;;10.00;;
49193;SDS011;35029;50.804;12.866;2022-12-15T14:53:41;14.90;;;9.67;;
49193;SDS011;35029;50.804;12.866;2022-12-15T14:58:57;13.17;;;8.63;;
49193;SDS011;35029;50.804;12.866;2022-12-15T15:01:28;17.40;;;9.03;;
49193;SDS011;35029;50.804;12.866;2022-12-15T15:03:59;15.67;;;9.03;;
49193;SDS011;35029;50.804;12.866;2022-12-15T15:06:36;13.30;;;9.07;;
49193;SDS011;35029;50.804;12.866;2022-12-15T15:09:13;13.63;;;8.60;;
49193;SDS011;35029;50.804;12.866;2022-12-15T15:11:45;14.15;;;8.73;;
49193;SDS011;35029;50.804;12.866;2022-12-15T15:14:17;14.67;;;9.47;;
49193;SDS011;35029;50.804;12.866;2022-12-15T15:17:12;21.20;;;10.83;;
49193;SDS011;35029;50.804;12.866;2022-12-15T15:23:20;17.27;;;9.75;;
49193;SDS011;35029;50.804;12.866;2022-12-15T15:28:02;18.92;;;11.27;;
49193;SDS011;35029;50.804;12.866;2022-12-15T15:30:45;16.83;;;10.87;;
49193;SDS011;35029;50.804;12.866;2022-12-15T15:33:10;20.17;;;11.27;;
49193;SDS011;35029;50.804;12.866;2022-12-15T15:35:37;18.77;;;11.13;;
49193;SDS011;35029;50.804;12.866;2022-12-15T15:40:48;23.20;;;13.60;;
49193;SDS011;35029;50.804;12.866;2022-12-15T15:43:15;21.13;;;12.73;;
49193;SDS011;35029;50.804;12.866;2022-12-15T15:45:41;18.97;;;11.70;;
49193;SDS011;35029;50.804;12.866;2022-12-15T15:48:08;21.43;;;12.07;;
49193;SDS011;35029;50.804;12.866;2022-12-15T15:50:42;25.43;;;12.83;;
49193;SDS011;35029;50.804;12.866;2022-12-15T15:53:10;21.13;;;12.63;;
49193;SDS011;35029;50.804;12.866;2022-12-15T15:55:41;20.20;;;14.17;;
49193;SDS011;35029;50.804;12.866;2022-12-15T15:58:09;21.57;;;14.93;;
49193;SDS011;35029;50.804;12.866;2022-12-15T16:00:36;21.97;;;12.87;;
49193;SDS011;35029;50.804;12.866;2022-12-15T16:03:01;19.13;;;12.70;;
49193;SDS011;35029;50.804;12.866;2022-12-15T16:05:27;20.53;;;12.57;;
49193;SDS011;35029;50.804;12.866;2022-12-15T16:07:52;19.53;;;12.07;;
49193;SDS011;35029;50.804;12.866;2022-12-15T16:10:18;19.47;;;11.80;;
49193;SDS011;35029;50.804;12.866;2022-12-15T16:12:48;19.33;;;10.50;;
49193;SDS011;35029;50.804;12.866;2022-12-15T16:17:43;18.40;;;11.10;;
49193;SDS011;35029;50.804;12.866;2022-12-15T16:20:10;18.37;;;11.13;;
49193;SDS011;35029;50.804;12.866;2022-12-15T16:22:38;17.80;;;10.73;;
49193;SDS011;35029;50.804;12.866;2022-12-15T16:27:57;17.00;;;11.07;;
49193;SDS011;35029;50.804;12.866;2022-12-15T16:30:25;16.73;;;11.70;;
49193;SDS011;35029;50.804;12.866;2022-12-15T16:32:52;15.13;;;10.60;;
49193;SDS011;35029;50.804;12.866;2022-12-15T16:35:19;21.43;;;12.50;;
49193;SDS011;35029;50.804;12.866;2022-12-15T16:37:49;21.07;;;13.03;;
49193;SDS011;35029;50.804;12.866;2022-12-15T16:40:21;21.70;;;14.57;;
49193;SDS011;35029;50.804;12.866;2022-12-15T16:42:54;24.80;;;14.13;;
49193;SDS011;35029;50.804;12.866;2022-12-15T16:45:22;23.00;;;14.50;;
49193;SDS011;35029;50.804;12.866;2022-12-15T16:47:49;23.30;;;14.23;;
49193;SDS011;35029;50.804;12.866;2022-12-15T16:50:16;18.70;;;12.20;;
49193;SDS011;35029;50.804;12.866;2022-12-15T16:52:44;27.27;;;18.00;;
49193;SDS011;35029;50.804;12.866;2022-12-15T16:55:19;29.63;;;18.37;;
49193;SDS011;35029;50.804;12.866;2022-12-15T16:57:47;31.17;;;16.60;;
49193;SDS011;35029;50.804;12.866;2022-12-15T17:00:22;24.53;;;14.43;;
49193;SDS011;35029;50.804;12.866;2022-12-15T17:02:50;26.60;;;14.53;;
49193;SDS011;35029;50.804;12.866;2022-12-15T17:05:16;18.70;;;11.90;;